Time;durP1;ratioP1;P1;durP2;ratioP2;P2;SDS_P1;SDS_P2;PMS_P1;PMS_P2;Temp;Humidity;BMP_temperature;BMP_pressure;BME280_temperature;BME280_humidity;BME280_pressure;Samples;Min_cycle;Max_cycle;Signal;HPM_P1;HPM_P2
2020/12/02 10:22:28;;;;;;;29.60;9.85;;;9.60;99.90;;;;;;5109493;27;20452;-74
2020/12/02 10:25:16;;;;;;;31.13;10.57;;;9.90;99.90;;;;;;5089777;28;20067;-75
2020/12/02 10:28:19;;;;;;;28.63;11.75;;;10.20;99.90;;;;;;5086957;28;20028;-76
2020/12/02 10:31:22;;;;;;;31.30;12.00;;;10.50;99.90;;;;;;5079310;28;20423;-75
2020/12/02 10:33:58;;;;;;;33.13;11.00;;;10.70;99.90;;;;;;5051200;28;20048;-77
2020/12/02 10:36:32;;;;;;;36.30;15.55;;;10.80;99.90;;;;;;5060909;28;20029;-78
2020/12/02 10:39:00;;;;;;;27.50;11.38;;;11.00;99.90;;;;;;5058989;28;20033;-74
2020/12/02 10:41:35;;;;;;;37.83;12.63;;;10.90;99.90;;;;;;5048077;28;20026;-78
2020/12/02 10:44:10;;;;;;;41.70;15.50;;;11.00;99.90;;;;;;5056030;28;20029;-76
2020/12/02 10:46:44;;;;;;;43.38;14.27;;;11.10;99.90;;;;;;5063445;28;20183;-77
2020/12/02 10:49:26;;;;;;;32.05;13.90;;;11.20;99.90;;;;;;5058532;28;20079;-76
2020/12/02 10:51:54;;;;;;;;;;;11.30;99.90;;;;;;5049150;28;20029;-77
2020/12/02 10:54:24;;;;;;;31.27;13.15;;;11.40;99.90;;;;;;5052247;28;19939;-72
2020/12/02 10:56:57;;;;;;;25.98;11.82;;;11.40;99.90;;;;;;5058024;28;20033;-76
2020/12/02 10:59:25;;;;;;;29.55;11.00;;;11.40;99.90;;;;;;5056679;28;20047;-77
2020/12/02 11:01:51;;;;;;;26.45;10.43;;;11.50;99.90;;;;;;5054529;28;20091;-76
2020/12/02 11:04:19;;;;;;;25.45;11.10;;;11.50;99.90;;;;;;5059596;28;20044;-79
2020/12/02 11:07:14;;;;;;;30.45;11.30;;;11.50;99.90;;;;;;5058560;28;20359;-78
2020/12/02 11:09:48;;;;;;;28.85;12.57;;;11.50;99.90;;;;;;5059244;28;20035;-76
2020/12/02 11:12:35;;;;;;;30.77;11.30;;;11.50;99.90;;;;;;5052567;28;20542;-77
2020/12/02 11:15:04;;;;;;;21.90;9.20;;;11.50;99.90;;;;;;5052842;28;20031;-76
2020/12/02 11:17:59;;;;;;;26.50;10.32;;;11.50;99.90;;;;;;5054851;28;20602;-77
2020/12/02 11:20:53;;;;;;;29.00;9.02;;;11.50;99.90;;;;;;5054031;28;20056;-73
2020/12/02 11:23:40;;;;;;;33.00;9.75;;;11.60;99.90;;;;;;5017881;28;20038;-72
2020/12/02 11:26:12;;;;;;;24.17;9.90;;;11.60;99.90;;;;;;5019170;28;20197;-73
2020/12/02 11:28:42;;;;;;;21.08;9.05;;;11.70;99.90;;;;;;5020807;28;20060;-74
2020/12/02 11:31:31;;;;;;;20.50;8.70;;;11.60;99.90;;;;;;4999690;28;20124;-74
2020/12/02 11:34:19;;;;;;;18.73;8.88;;;11.50;99.90;;;;;;5008699;28;20092;-73
2020/12/02 11:37:07;;;;;;;21.90;9.15;;;11.40;99.90;;;;;;5006853;28;20087;-74
2020/12/02 11:39:53;;;;;;;24.30;8.98;;;11.40;99.90;;;;;;5003786;28;20033;-74
2020/12/02 11:42:32;;;;;;;20.00;8.18;;;11.40;99.90;;;;;;5003271;28;20025;-73
2020/12/02 11:45:26;;;;;;;19.55;7.65;;;11.50;99.90;;;;;;5002168;28;20030;-72
2020/12/02 11:48:26;;;;;;;20.67;8.13;;;11.50;99.90;;;;;;5007019;28;20076;-73
2020/12/02 11:51:26;;;;;;;23.50;7.68;;;11.40;99.90;;;;;;5007915;28;20073;-73
2020/12/02 11:53:59;;;;;;;15.80;6.90;;;11.40;99.90;;;;;;5006119;28;20449;-74
2020/12/02 11:56:37;;;;;;;20.60;7.93;;;11.30;99.90;;;;;;5005467;28;20571;-75
2020/12/02 11:59:13;;;;;;;15.05;7.20;;;11.30;99.90;;;;;;5008631;28;20064;-74
2020/12/02 12:01:54;;;;;;;13.75;6.15;;;11.30;99.90;;;;;;5036964;28;20416;-75
2020/12/02 12:04:47;;;;;;;14.45;5.82;;;11.30;99.90;;;;;;5038083;28;20083;-74
2020/12/02 12:07:47;;;;;;;11.50;5.97;;;11.40;99.90;;;;;;5040787;28;20067;-74
2020/12/02 12:10:21;;;;;;;11.18;5.38;;;11.40;99.90;;;;;;5048043;28;20029;-74
2020/12/02 12:13:09;;;;;;;18.38;6.43;;;11.40;99.90;;;;;;5036789;28;20030;-74
2020/12/02 12:15:42;;;;;;;16.40;4.97;;;11.50;99.90;;;;;;5042005;28;20057;-74
2020/12/02 12:18:35;;;;;;;10.68;4.57;;;11.50;99.90;;;;;;5044246;28;20108;-73
2020/12/02 12:21:08;;;;;;;10.82;4.70;;;11.50;99.90;;;;;;5045223;28;20049;-74
2020/12/02 12:23:55;;;;;;;9.82;4.18;;;11.50;99.90;;;;;;5037859;28;20051;-74
2020/12/02 12:26:22;;;;;;;9.30;4.30;;;11.40;99.90;;;;;;5040001;28;20052;-73
2020/12/02 12:28:48;;;;;;;12.73;4.53;;;11.50;99.90;;;;;;5035242;28;20128;-73
2020/12/02 12:31:45;;;;;;;11.70;4.57;;;11.50;99.90;;;;;;5041643;28;20120;-72
2020/12/02 12:34:37;;;;;;;8.85;4.57;;;11.50;99.90;;;;;;5034504;28;20096;-74
2020/12/02 12:37:06;;;;;;;10.07;4.63;;;11.50;99.90;;;;;;5045301;28;20036;-76
2020/12/02 12:39:51;;;;;;;12.43;4.97;;;11.60;99.90;;;;;;5042051;28;20037;-74
2020/12/02 12:42:22;;;;;;;12.55;5.07;;;11.50;99.90;;;;;;5033286;28;20358;-73
2020/12/02 12:44:49;;;;;;;12.52;4.90;;;11.50;99.90;;;;;;5035898;28;21349;-74
2020/12/02 12:47:34;;;;;;;11.45;5.20;;;11.60;99.90;;;;;;5042873;28;20033;-74
2020/12/02 12:50:02;;;;;;;13.85;5.47;;;11.60;99.90;;;;;;5039801;28;20480;-75
2020/12/02 12:52:31;;;;;;;13.57;5.43;;;11.60;99.90;;;;;;5039182;28;20128;-75
2020/12/02 12:54:57;;;;;;;15.43;6.00;;;11.70;99.90;;;;;;5040014;28;20076;-75
2020/12/02 12:57:27;;;;;;;12.52;5.50;;;11.60;99.90;;;;;;5044310;28;20068;-73
2020/12/02 12:59:54;;;;;;;18.88;6.40;;;11.60;99.90;;;;;;5036764;28;20365;-74
2020/12/02 13:02:25;;;;;;;11.88;5.88;;;11.60;99.90;;;;;;5036905;28;20029;-74
2020/12/02 13:04:51;;;;;;;11.82;5.72;;;11.60;99.90;;;;;;5035500;28;20025;-74
2020/12/02 13:07:19;;;;;;;16.23;6.45;;;11.60;99.90;;;;;;5033607;28;20045;-75
2020/12/02 13:10:07;;;;;;;13.25;5.60;;;11.60;99.90;;;;;;5040311;28;20026;-75
2020/12/02 13:12:42;;;;;;;18.95;6.30;;;11.70;99.90;;;;;;5056055;28;20036;-76
2020/12/02 13:15:39;;;;;;;12.82;5.88;;;11.60;99.90;;;;;;5040395;28;20025;-74
2020/12/02 13:18:20;;;;;;;13.40;6.30;;;11.50;99.90;;;;;;5035163;28;20040;-74
2020/12/02 13:20:53;;;;;;;14.43;5.75;;;11.50;99.90;;;;;;5035311;28;20041;-73
2020/12/02 13:23:36;;;;;;;15.75;6.93;;;11.40;99.90;;;;;;5034850;28;20515;-74
2020/12/02 13:26:24;;;;;;;20.33;6.72;;;11.40;99.90;;;;;;5042181;28;20511;-74
2020/12/02 13:29:23;;;;;;;16.95;6.28;;;11.40;99.90;;;;;;5036724;28;20104;-74
